Edwards, CA (93524)

2:36 AM PDT on August 28, 2015 (GMT -0700)
Edwards Air Force Base | | Change Station
CLOSE
Current Station
Airport
Location: Edwards AFB,
Elevation: 2313 ft
Nearby Weather Stations

Elev 2313 ft 34.91 °N, 117.88 °W | Updated 38 minutes ago

Clear
Clear
75 °F
Feels Like 75 °F
N
8
Wind Variable Wind from SSW

Today
High -- | Low -- °F
--% Chance of Precip.
Yesterday
High -- | Low -- °F
Precip. -- in
6:21 AM 7:23 PM
Waxing Gibbous, 97% visible
Pressure 29.90 in
Visibility 10.0 miles
Clouds Clear
Dew Point 39 °F
Humidity 27%
Rainfall 0.00 in
Snow Depth Not available.
UV 0 out of 12
Pollen 7.90 out of 12
Air Quality Not available.
Flu Activity Not available.
METAR KEDW 280858Z AUTO 21007KT 10SM CLR 24/04 A2998 RMK AO2 SLP123 T02380039 58003
Pressure 29.90 in
Visibility 10.0 miles
Clouds Clear
Dew Point 39 °F
Humidity 27%
Rainfall 0.00 in
Snow Depth Not available.
UV 0 out of 12
Pollen 7.90 out of 12
Air Quality Not available.
Flu Activity Not available.
METAR KEDW 280858Z AUTO 21007KT 10SM CLR 24/04 A2998 RMK AO2 SLP123 T02380039 58003

10-Day Weather Forecast

×

Almanac

Astronomy

Aug. 28, 2015 Rise Set
Actual Time
Civil Twilight
Nautical Twilight
Astronomical Twilight
Moon
Length of Visible Light
Length of Day
Tomorrow will be .
, % of the Moon is Illuminated

Today's Extremes

State Highs State Lows

Community

WunderPhotos

Upload Photos

1,850,352 photos uploaded!

WunderBlogs® & News

Nearby

Air Quality

  Air Quality AQ Index Pollutant
Not available.

Snow Depth

Station Depth Elevation

Earthquake Activity

City Distance Mag. Time & Date
Minimum magnitude displayed is 2.5.

Coastal Water Temperatures

Place Temperature

Stations

Nearby Weather Stations

Station Location Temp. Windchill Dew Point Humidity Wind Precip. Elev Updated Type